Time;durP1;ratioP1;P1;durP2;ratioP2;P2;SDS_P1;SDS_P2;PMS_P1;PMS_P2;Temp;Humidity;BMP_temperature;BMP_pressure;BME280_temperature;BME280_humidity;BME280_pressure;Samples;Min_cycle;Max_cycle;Signal;HPM_P1;HPM_P2
2020/12/09 00:01:48;;;;;;;61.93;33.00;;;;;;;;;;6249238;22;20450;-72
2020/12/09 00:04:22;;;;;;;60.13;34.53;;;;;;;;;;6249092;22;20425;-72
2020/12/09 00:06:56;;;;;;;56.70;30.90;;;;;;;;;;6249676;22;20505;-73
2020/12/09 00:09:31;;;;;;;61.50;33.10;;;;;;;;;;6249057;22;20436;-73
2020/12/09 00:12:04;;;;;;;62.30;36.80;;;;;;;;;;6249195;22;20481;-72
2020/12/09 00:14:37;;;;;;;60.77;35.37;;;;;;;;;;6249536;22;20421;-73
2020/12/09 00:17:07;;;;;;;55.47;33.17;;;;;;;;;;6249168;22;20446;-73
2020/12/09 00:19:36;;;;;;;57.63;32.20;;;;;;;;;;6248830;22;20426;-73
2020/12/09 00:22:13;;;;;;;61.13;32.40;;;;;;;;;;6248626;22;20410;-73
2020/12/09 00:24:48;;;;;;;59.63;31.80;;;;;;;;;;6248630;22;20528;-73
2020/12/09 00:27:19;;;;;;;65.23;33.23;;;;;;;;;;6249012;22;20390;-73
2020/12/09 00:29:47;;;;;;;56.77;31.63;;;;;;;;;;6249430;22;20694;-73
2020/12/09 00:32:20;;;;;;;68.90;34.33;;;;;;;;;;6249138;22;20464;-73
2020/12/09 00:34:53;;;;;;;70.07;35.90;;;;;;;;;;6248910;22;20430;-73
2020/12/09 00:37:31;;;;;;;63.83;31.87;;;;;;;;;;6248455;22;20749;-72
2020/12/09 00:39:59;;;;;;;58.97;31.43;;;;;;;;;;6248881;22;20452;-72
2020/12/09 00:45:08;;;;;;;70.77;35.70;;;;;;;;;;6217391;22;20430;-74
2020/12/09 00:47:36;;;;;;;66.43;32.50;;;;;;;;;;6249117;22;20413;-74
2020/12/09 00:52:51;;;;;;;63.10;32.27;;;;;;;;;;6248882;22;20400;-74
2020/12/09 00:55:22;;;;;;;68.77;32.93;;;;;;;;;;6249103;22;20424;-74
2020/12/09 00:57:50;;;;;;;63.60;32.40;;;;;;;;;;6248920;22;20472;-74
2020/12/09 01:00:17;;;;;;;62.03;31.50;;;;;;;;;;6249509;22;20421;-74
2020/12/09 01:02:44;;;;;;;64.20;30.57;;;;;;;;;;6248776;22;20435;-74
2020/12/09 01:05:13;;;;;;;65.80;33.97;;;;;;;;;;6249232;22;20421;-74
2020/12/09 01:07:43;;;;;;;59.13;31.63;;;;;;;;;;6249379;22;20414;-73
2020/12/09 01:10:11;;;;;;;65.27;33.57;;;;;;;;;;6249289;22;20903;-74
2020/12/09 01:12:42;;;;;;;64.17;32.23;;;;;;;;;;6248449;22;20475;-73
2020/12/09 01:15:21;;;;;;;73.23;34.80;;;;;;;;;;6248756;22;20432;-74
2020/12/09 01:17:49;;;;;;;63.53;33.30;;;;;;;;;;6248847;22;20467;-74
2020/12/09 01:20:17;;;;;;;71.60;34.10;;;;;;;;;;6249189;22;20698;-74
2020/12/09 01:22:44;;;;;;;57.73;29.87;;;;;;;;;;6247824;22;20418;-73
2020/12/09 01:25:12;;;;;;;59.27;29.67;;;;;;;;;;6248582;22;20548;-73
2020/12/09 01:27:39;;;;;;;60.23;32.90;;;;;;;;;;6248610;22;20429;-73
2020/12/09 01:30:06;;;;;;;64.03;30.93;;;;;;;;;;6249882;22;20457;-74
2020/12/09 01:32:33;;;;;;;58.13;30.23;;;;;;;;;;6249039;22;20417;-74
2020/12/09 01:35:00;;;;;;;58.50;31.00;;;;;;;;;;6248707;22;20516;-74
2020/12/09 01:37:29;;;;;;;54.23;29.47;;;;;;;;;;6248584;22;20484;-74
2020/12/09 01:39:57;;;;;;;58.37;31.47;;;;;;;;;;6247480;22;20704;-74
2020/12/09 01:42:24;;;;;;;61.60;31.23;;;;;;;;;;6248795;22;20424;-74
2020/12/09 01:44:51;;;;;;;59.07;30.70;;;;;;;;;;6249018;22;20457;-74
2020/12/09 01:47:19;;;;;;;70.97;34.70;;;;;;;;;;6248097;22;20418;-74
2020/12/09 01:49:46;;;;;;;60.10;31.27;;;;;;;;;;6248226;22;20835;-74
2020/12/09 01:52:13;;;;;;;54.77;30.40;;;;;;;;;;6248153;22;20414;-74
2020/12/09 01:54:42;;;;;;;58.63;31.00;;;;;;;;;;6248527;22;20418;-74
2020/12/09 01:57:10;;;;;;;59.67;32.20;;;;;;;;;;6248869;22;20839;-73
2020/12/09 01:59:38;;;;;;;56.10;30.83;;;;;;;;;;6248989;22;20823;-74
2020/12/09 02:02:05;;;;;;;60.93;33.33;;;;;;;;;;6247855;22;20418;-73
2020/12/09 02:04:33;;;;;;;60.00;31.10;;;;;;;;;;6248260;22;20456;-74
2020/12/09 02:07:00;;;;;;;60.13;32.30;;;;;;;;;;6248438;22;20433;-74
2020/12/09 02:09:28;;;;;;;56.33;30.03;;;;;;;;;;6248416;22;20484;-73
2020/12/09 02:11:57;;;;;;;63.23;32.10;;;;;;;;;;6248371;22;20742;-74
2020/12/09 02:14:24;;;;;;;58.30;31.40;;;;;;;;;;6248569;22;20449;-74
2020/12/09 02:16:52;;;;;;;56.97;32.97;;;;;;;;;;6248133;22;20760;-74
2020/12/09 02:19:20;;;;;;;60.80;34.40;;;;;;;;;;6247751;22;20828;-74
2020/12/09 02:21:48;;;;;;;59.63;32.70;;;;;;;;;;6248346;22;20480;-74
2020/12/09 02:24:18;;;;;;;58.93;32.07;;;;;;;;;;6248505;22;20983;-72
2020/12/09 02:26:46;;;;;;;62.37;31.93;;;;;;;;;;6248357;22;20521;-74
2020/12/09 02:29:13;;;;;;;68.50;34.17;;;;;;;;;;6248388;22;20840;-74
2020/12/09 02:31:41;;;;;;;58.20;32.37;;;;;;;;;;6248460;22;20417;-74
2020/12/09 02:34:08;;;;;;;63.30;32.67;;;;;;;;;;6248382;22;20409;-74
2020/12/09 02:36:36;;;;;;;61.10;32.83;;;;;;;;;;6248353;22;20946;-74
2020/12/09 02:39:05;;;;;;;68.40;35.67;;;;;;;;;;6247704;22;20480;-75
2020/12/09 02:41:32;;;;;;;73.10;32.90;;;;;;;;;;6248296;22;20476;-74
2020/12/09 02:43:59;;;;;;;60.37;33.07;;;;;;;;;;6248567;22;20414;-74
2020/12/09 02:46:27;;;;;;;60.97;32.73;;;;;;;;;;6249495;22;20421;-74
2020/12/09 02:48:54;;;;;;;59.33;30.57;;;;;;;;;;6250255;22;20839;-75
2020/12/09 02:51:21;;;;;;;57.70;31.30;;;;;;;;;;6249539;22;20416;-74
2020/12/09 02:53:49;;;;;;;59.93;32.17;;;;;;;;;;6250374;22;20448;-74
2020/12/09 02:56:18;;;;;;;62.23;31.17;;;;;;;;;;6250531;22;20483;-74
2020/12/09 02:58:45;;;;;;;54.70;32.73;;;;;;;;;;6249967;22;20445;-74
2020/12/09 03:01:12;;;;;;;52.10;30.47;;;;;;;;;;6249295;22;20735;-74
2020/12/09 03:03:39;;;;;;;57.73;29.50;;;;;;;;;;6250157;22;20437;-74
2020/12/09 03:06:07;;;;;;;63.03;31.93;;;;;;;;;;6249943;22;20468;-74
2020/12/09 03:08:34;;;;;;;58.10;31.50;;;;;;;;;;6249089;22;20444;-74
2020/12/09 03:11:02;;;;;;;56.77;30.53;;;;;;;;;;6249607;22;20425;-74
2020/12/09 03:13:30;;;;;;;51.87;30.10;;;;;;;;;;6249755;22;20882;-74
2020/12/09 03:15:57;;;;;;;58.40;33.00;;;;;;;;;;6251093;22;20417;-74
2020/12/09 03:18:24;;;;;;;58.33;30.77;;;;;;;;;;6248261;22;20480;-74
2020/12/09 03:20:51;;;;;;;55.57;32.23;;;;;;;;;;6250136;22;20490;-74
2020/12/09 03:23:19;;;;;;;61.77;32.40;;;;;;;;;;6249556;22;20828;-74
2020/12/09 03:25:46;;;;;;;58.50;32.27;;;;;;;;;;6249339;22;20421;-74
2020/12/09 03:28:13;;;;;;;56.07;32.83;;;;;;;;;;6249464;22;21166;-74
2020/12/09 03:30:41;;;;;;;55.67;29.73;;;;;;;;;;6249114;22;20460;-74
2020/12/09 03:33:09;;;;;;;58.63;30.87;;;;;;;;;;6249813;22;20413;-74
2020/12/09 03:35:36;;;;;;;66.30;31.60;;;;;;;;;;6249145;22;20417;-74
2020/12/09 03:38:03;;;;;;;59.77;31.03;;;;;;;;;;6249205;22;20490;-74
2020/12/09 03:40:30;;;;;;;60.10;33.23;;;;;;;;;;6248996;22;20460;-74
2020/12/09 03:42:58;;;;;;;62.13;31.70;;;;;;;;;;6250650;22;20835;-74
2020/12/09 03:45:25;;;;;;;65.03;30.50;;;;;;;;;;6248591;22;20421;-74
2020/12/09 03:47:53;;;;;;;61.70;32.93;;;;;;;;;;6248844;22;20412;-73
2020/12/09 03:50:20;;;;;;;56.90;32.27;;;;;;;;;;6248450;22;20426;-74
2020/12/09 03:52:47;;;;;;;55.87;30.53;;;;;;;;;;6248389;22;20453;-74
2020/12/09 03:55:16;;;;;;;57.00;30.90;;;;;;;;;;6249068;22;20827;-73
2020/12/09 03:57:43;;;;;;;58.30;30.40;;;;;;;;;;6249035;22;20513;-74
2020/12/09 04:00:11;;;;;;;53.40;29.60;;;;;;;;;;6248651;22;20457;-74
2020/12/09 04:02:38;;;;;;;59.37;31.40;;;;;;;;;;6249146;22;20533;-74
2020/12/09 04:05:07;;;;;;;54.20;31.67;;;;;;;;;;6248390;22;20467;-74
2020/12/09 04:07:34;;;;;;;62.13;32.00;;;;;;;;;;6249371;22;20415;-74
2020/12/09 04:10:02;;;;;;;61.77;34.23;;;;;;;;;;6249137;22;20406;-74
2020/12/09 04:12:29;;;;;;;61.53;33.63;;;;;;;;;;6248763;22;20475;-74
2020/12/09 04:14:57;;;;;;;54.17;29.90;;;;;;;;;;6248918;22;21281;-74
2020/12/09 04:17:25;;;;;;;56.00;30.57;;;;;;;;;;6248746;22;20413;-74
2020/12/09 04:19:53;;;;;;;61.73;32.57;;;;;;;;;;6248109;22;20843;-74
2020/12/09 04:22:21;;;;;;;63.23;32.73;;;;;;;;;;6248647;22;20409;-74
2020/12/09 04:24:48;;;;;;;63.30;30.67;;;;;;;;;;6248778;22;20420;-74
2020/12/09 04:27:15;;;;;;;55.77;29.13;;;;;;;;;;6248361;22;20429;-74
2020/12/09 04:29:42;;;;;;;57.97;31.37;;;;;;;;;;6247982;22;20433;-74
2020/12/09 04:32:10;;;;;;;55.77;28.93;;;;;;;;;;6249310;22;20426;-73
2020/12/09 04:34:37;;;;;;;60.57;34.40;;;;;;;;;;6248549;22;20555;-74
2020/12/09 04:37:04;;;;;;;55.07;27.90;;;;;;;;;;6249077;22;20479;-74
2020/12/09 04:39:33;;;;;;;57.83;31.40;;;;;;;;;;6248884;22;20457;-74
2020/12/09 04:42:00;;;;;;;61.37;33.73;;;;;;;;;;6248363;22;20729;-74
2020/12/09 04:44:28;;;;;;;64.40;32.63;;;;;;;;;;6247546;22;21114;-74
2020/12/09 04:46:55;;;;;;;54.10;29.77;;;;;;;;;;6247260;22;20417;-74
2020/12/09 04:49:23;;;;;;;54.40;30.70;;;;;;;;;;6247936;22;20413;-73
2020/12/09 04:52:13;;;;;;;56.53;30.83;;;;;;;;;;6248548;22;20422;-73
2020/12/09 04:54:42;;;;;;;51.47;31.33;;;;;;;;;;6210864;23;20491;-74
2020/12/09 04:57:11;;;;;;;53.20;29.00;;;;;;;;;;6249011;22;20447;-74
2020/12/09 04:59:40;;;;;;;53.00;29.60;;;;;;;;;;6247213;22;20867;-74
2020/12/09 05:02:08;;;;;;;56.03;29.60;;;;;;;;;;6248142;22;20712;-74
2020/12/09 05:04:36;;;;;;;59.10;30.57;;;;;;;;;;6247909;22;20475;-74
2020/12/09 05:07:08;;;;;;;56.63;30.37;;;;;;;;;;6247895;22;20480;-73
2020/12/09 05:09:39;;;;;;;47.93;28.07;;;;;;;;;;6247244;22;20825;-74
2020/12/09 05:12:07;;;;;;;56.57;30.63;;;;;;;;;;6247912;22;20883;-74
2020/12/09 05:14:38;;;;;;;51.90;30.57;;;;;;;;;;6247671;22;20410;-74
2020/12/09 05:17:11;;;;;;;58.43;31.13;;;;;;;;;;6248442;22;20422;-74
2020/12/09 05:19:40;;;;;;;66.10;30.97;;;;;;;;;;6247792;22;20453;-74
2020/12/09 05:22:11;;;;;;;56.90;31.23;;;;;;;;;;6247305;22;20406;-74
2020/12/09 05:24:38;;;;;;;59.57;30.37;;;;;;;;;;6248676;22;20488;-74
2020/12/09 05:27:07;;;;;;;64.57;32.00;;;;;;;;;;6248279;22;20422;-73
2020/12/09 05:29:44;;;;;;;56.70;30.80;;;;;;;;;;6247186;22;20409;-74
2020/12/09 05:32:12;;;;;;;48.10;27.40;;;;;;;;;;6247506;22;20421;-75
2020/12/09 05:34:39;;;;;;;62.77;32.43;;;;;;;;;;6247658;22;20827;-74
2020/12/09 05:37:07;;;;;;;58.37;30.70;;;;;;;;;;6248161;22;20421;-75
2020/12/09 05:39:35;;;;;;;64.90;29.47;;;;;;;;;;6247548;22;20450;-74
2020/12/09 05:42:13;;;;;;;58.23;31.27;;;;;;;;;;6248017;22;20475;-74
2020/12/09 05:44:43;;;;;;;58.43;31.13;;;;;;;;;;6248131;22;20408;-74
2020/12/09 05:47:11;;;;;;;63.87;32.60;;;;;;;;;;6248056;22;20431;-74
2020/12/09 05:49:39;;;;;;;59.80;33.33;;;;;;;;;;6248412;22;20417;-75
2020/12/09 05:52:15;;;;;;;59.80;32.87;;;;;;;;;;6248173;22;20835;-74
2020/12/09 05:54:43;;;;;;;62.23;32.53;;;;;;;;;;6246962;22;20775;-74
2020/12/09 05:57:11;;;;;;;63.30;32.50;;;;;;;;;;6246505;22;20422;-73
2020/12/09 05:59:59;;;;;;;60.50;31.90;;;;;;;;;;6247124;22;20659;-73
2020/12/09 06:02:33;;;;;;;67.57;33.17;;;;;;;;;;6248526;22;20425;-73
2020/12/09 06:05:00;;;;;;;56.37;30.10;;;;;;;;;;6245982;22;20429;-73
2020/12/09 06:07:28;;;;;;;57.60;31.60;;;;;;;;;;6245834;22;20412;-73
2020/12/09 06:10:17;;;;;;;54.77;31.13;;;;;;;;;;6246767;22;20536;-75
2020/12/09 06:12:51;;;;;;;61.70;31.33;;;;;;;;;;6239913;22;20425;-75
2020/12/09 06:15:21;;;;;;;64.57;31.27;;;;;;;;;;6246422;22;20448;-74
2020/12/09 06:18:09;;;;;;;61.07;33.57;;;;;;;;;;6245871;22;20441;-74
2020/12/09 06:20:39;;;;;;;55.37;28.90;;;;;;;;;;6244486;22;20409;-74
2020/12/09 06:23:14;;;;;;;52.60;31.90;;;;;;;;;;6244287;22;20480;-73
2020/12/09 06:25:42;;;;;;;58.07;31.43;;;;;;;;;;6244170;22;20815;-75
2020/12/09 06:28:13;;;;;;;60.90;32.17;;;;;;;;;;6243736;22;20424;-74
2020/12/09 06:30:41;;;;;;;56.60;31.83;;;;;;;;;;6243297;22;20420;-74
2020/12/09 06:33:09;;;;;;;57.20;31.07;;;;;;;;;;6244501;22;20417;-74
2020/12/09 06:35:41;;;;;;;58.90;32.17;;;;;;;;;;6244649;22;20774;-75
2020/12/09 06:38:15;;;;;;;61.57;33.40;;;;;;;;;;6243536;22;20477;-74
2020/12/09 06:40:57;;;;;;;63.83;32.77;;;;;;;;;;6245466;22;20413;-73
2020/12/09 06:43:24;;;;;;;64.40;33.17;;;;;;;;;;6244318;22;20833;-74
2020/12/09 06:45:52;;;;;;;59.17;31.03;;;;;;;;;;6244402;22;20406;-74
2020/12/09 06:48:20;;;;;;;53.40;30.70;;;;;;;;;;6245029;22;20452;-74
2020/12/09 06:50:51;;;;;;;51.77;28.17;;;;;;;;;;6244321;22;21063;-74
2020/12/09 06:53:19;;;;;;;63.83;32.33;;;;;;;;;;6244487;22;20417;-74
2020/12/09 06:55:49;;;;;;;57.20;32.30;;;;;;;;;;6244565;22;20862;-74
2020/12/09 06:58:25;;;;;;;65.93;29.93;;;;;;;;;;6244858;22;21059;-74
2020/12/09 07:00:59;;;;;;;73.40;33.23;;;;;;;;;;6246512;22;20413;-74
2020/12/09 07:03:27;;;;;;;63.07;32.90;;;;;;;;;;6245589;22;20421;-74
2020/12/09 07:05:57;;;;;;;58.90;30.00;;;;;;;;;;6245715;22;20418;-74
2020/12/09 07:08:25;;;;;;;62.83;30.00;;;;;;;;;;6245598;22;20438;-74
2020/12/09 07:10:59;;;;;;;62.93;30.50;;;;;;;;;;6243599;22;20496;-73
2020/12/09 07:13:30;;;;;;;63.60;32.20;;;;;;;;;;6245624;22;20662;-74
2020/12/09 07:15:57;;;;;;;65.47;32.57;;;;;;;;;;6245699;22;20414;-74
2020/12/09 07:18:25;;;;;;;65.80;32.40;;;;;;;;;;6245193;22;20449;-75
2020/12/09 07:21:00;;;;;;;67.20;33.73;;;;;;;;;;6245111;22;20468;-74
2020/12/09 07:23:30;;;;;;;62.33;31.67;;;;;;;;;;6247433;22;20506;-74
2020/12/09 07:26:12;;;;;;;61.80;31.37;;;;;;;;;;6246363;22;20437;-74
2020/12/09 07:28:43;;;;;;;72.13;33.20;;;;;;;;;;6244665;22;20789;-73
2020/12/09 07:31:22;;;;;;;64.33;30.50;;;;;;;;;;6243601;22;20479;-75
2020/12/09 07:33:49;;;;;;;67.43;33.03;;;;;;;;;;6245086;22;20804;-74
2020/12/09 07:36:17;;;;;;;61.07;33.03;;;;;;;;;;6245979;22;20421;-74
2020/12/09 07:38:45;;;;;;;63.13;32.80;;;;;;;;;;6245877;22;20507;-74
2020/12/09 07:41:13;;;;;;;59.10;31.40;;;;;;;;;;6245736;22;20422;-73
2020/12/09 07:43:47;;;;;;;61.93;31.67;;;;;;;;;;6248161;22;20713;-75
2020/12/09 07:46:18;;;;;;;60.03;31.50;;;;;;;;;;6246712;22;20477;-75
2020/12/09 07:48:47;;;;;;;57.90;30.60;;;;;;;;;;6247224;22;20406;-75
2020/12/09 07:51:14;;;;;;;56.27;31.37;;;;;;;;;;6247511;22;20434;-74
2020/12/09 07:53:43;;;;;;;68.10;32.00;;;;;;;;;;6247093;22;20766;-75
2020/12/09 07:56:10;;;;;;;58.20;29.23;;;;;;;;;;6247593;22;20500;-74
2020/12/09 07:58:38;;;;;;;67.03;33.40;;;;;;;;;;6248464;22;20701;-74
2020/12/09 08:01:07;;;;;;;64.03;34.50;;;;;;;;;;6249286;22;20512;-73
2020/12/09 08:03:35;;;;;;;72.03;31.70;;;;;;;;;;6248223;22;20485;-75
2020/12/09 08:06:03;;;;;;;63.80;30.87;;;;;;;;;;6246471;22;20516;-75
2020/12/09 08:08:30;;;;;;;63.23;33.20;;;;;;;;;;6249433;22;20460;-75
2020/12/09 08:11:07;;;;;;;66.50;33.60;;;;;;;;;;6248585;22;20409;-75
2020/12/09 08:13:44;;;;;;;63.23;33.70;;;;;;;;;;6247796;22;20683;-74
2020/12/09 08:16:14;;;;;;;66.20;32.03;;;;;;;;;;6247092;22;20501;-74
2020/12/09 08:18:46;;;;;;;70.67;34.40;;;;;;;;;;6246830;22;20567;-74
2020/12/09 08:21:13;;;;;;;71.50;33.70;;;;;;;;;;6246448;22;20514;-74
2020/12/09 08:23:46;;;;;;;65.00;33.97;;;;;;;;;;6246555;22;20451;-75
2020/12/09 08:26:14;;;;;;;61.80;33.50;;;;;;;;;;6245679;22;20456;-76
2020/12/09 08:28:49;;;;;;;66.43;35.97;;;;;;;;;;6247639;22;20436;-74
2020/12/09 08:31:17;;;;;;;72.13;34.50;;;;;;;;;;6247310;22;20506;-74
2020/12/09 08:33:44;;;;;;;66.63;33.27;;;;;;;;;;6247762;22;20863;-74
2020/12/09 08:36:12;;;;;;;70.23;35.17;;;;;;;;;;6248473;22;20409;-74
2020/12/09 08:38:41;;;;;;;63.83;33.13;;;;;;;;;;6247693;22;20786;-75
2020/12/09 08:41:10;;;;;;;68.23;33.03;;;;;;;;;;6248507;22;20421;-75
2020/12/09 08:43:39;;;;;;;58.13;30.13;;;;;;;;;;6245619;22;20422;-75
2020/12/09 08:46:09;;;;;;;64.57;34.63;;;;;;;;;;6246808;22;20425;-75
2020/12/09 08:48:41;;;;;;;66.87;33.67;;;;;;;;;;6247526;22;20508;-75
2020/12/09 08:51:09;;;;;;;62.23;32.73;;;;;;;;;;6246997;22;20428;-75
2020/12/09 08:53:53;;;;;;;63.27;33.10;;;;;;;;;;6247601;22;20396;-74
2020/12/09 08:56:29;;;;;;;65.43;34.63;;;;;;;;;;6248247;22;20405;-76
2020/12/09 08:59:02;;;;;;;64.90;32.07;;;;;;;;;;6247896;22;20473;-75
2020/12/09 09:01:37;;;;;;;61.90;35.67;;;;;;;;;;6247721;22;20421;-74
2020/12/09 09:04:39;;;;;;;71.47;34.40;;;;;;;;;;6247753;22;20418;-74
2020/12/09 09:07:07;;;;;;;73.20;33.60;;;;;;;;;;6246389;22;20724;-75
2020/12/09 09:09:35;;;;;;;74.40;34.73;;;;;;;;;;6249247;22;20898;-74
2020/12/09 09:12:08;;;;;;;66.17;33.33;;;;;;;;;;6247766;22;20529;-77
2020/12/09 09:14:36;;;;;;;61.30;31.57;;;;;;;;;;6248252;22;20414;-75
2020/12/09 09:17:04;;;;;;;68.27;36.23;;;;;;;;;;6247316;22;20447;-74
2020/12/09 09:19:34;;;;;;;64.87;32.67;;;;;;;;;;6247256;22;20449;-75
2020/12/09 09:22:04;;;;;;;68.30;33.07;;;;;;;;;;6247593;22;20428;-76
2020/12/09 09:25:11;;;;;;;61.80;32.93;;;;;;;;;;6248028;22;20414;-77
2020/12/09 09:27:42;;;;;;;55.70;32.00;;;;;;;;;;6155160;23;20897;-74
2020/12/09 09:30:11;;;;;;;61.40;31.20;;;;;;;;;;6174346;23;20436;-76
2020/12/09 09:32:56;;;;;;;62.90;32.30;;;;;;;;;;6245010;22;20939;-76
2020/12/09 09:35:25;;;;;;;65.97;35.10;;;;;;;;;;6248121;22;20840;-75
2020/12/09 09:40:34;;;;;;;56.73;31.37;;;;;;;;;;6245148;22;20492;-74
2020/12/09 09:43:02;;;;;;;60.80;31.50;;;;;;;;;;6248637;22;20443;-75
2020/12/09 09:45:33;;;;;;;60.80;32.47;;;;;;;;;;6247945;22;20822;-77
2020/12/09 09:48:01;;;;;;;57.40;30.27;;;;;;;;;;6247698;22;20437;-75
2020/12/09 09:53:43;;;;;;;55.70;32.13;;;;;;;;;;6193281;22;20466;-76
2020/12/09 09:56:11;;;;;;;62.37;33.07;;;;;;;;;;6247329;22;20481;-74
2020/12/09 09:58:59;;;;;;;55.27;30.70;;;;;;;;;;6247021;22;20700;-75
2020/12/09 10:01:28;;;;;;;58.13;29.77;;;;;;;;;;6247053;22;20433;-72
2020/12/09 10:03:55;;;;;;;54.53;31.17;;;;;;;;;;6245365;22;20512;-75
2020/12/09 10:09:16;;;;;;;58.37;33.17;;;;;;;;;;6241403;22;20424;-74
2020/12/09 10:11:51;;;;;;;51.53;29.03;;;;;;;;;;6246114;23;20703;-75
2020/12/09 10:17:26;;;;;;;57.70;31.20;;;;;;;;;;6235875;23;20492;-74
2020/12/09 10:20:05;;;;;;;58.30;31.93;;;;;;;;;;6241690;22;20442;-75
2020/12/09 10:22:32;;;;;;;55.83;29.77;;;;;;;;;;6246630;23;20967;-74
2020/12/09 10:25:12;;;;;;;53.63;31.13;;;;;;;;;;6247377;22;20867;-73
2020/12/09 10:27:47;;;;;;;47.40;28.10;;;;;;;;;;6246673;23;20426;-74
2020/12/09 10:30:15;;;;;;;56.83;30.20;;;;;;;;;;6245167;22;20412;-74
2020/12/09 10:32:48;;;;;;;49.10;28.70;;;;;;;;;;6245482;23;20401;-73
2020/12/09 10:35:19;;;;;;;52.37;29.63;;;;;;;;;;6244417;22;20418;-76
2020/12/09 10:40:54;;;;;;;51.30;28.50;;;;;;;;;;6243883;22;20787;-75
2020/12/09 10:43:32;;;;;;;53.20;30.57;;;;;;;;;;6245600;23;20440;-74
2020/12/09 10:46:19;;;;;;;49.07;29.23;;;;;;;;;;6245901;22;20449;-75
2020/12/09 10:48:55;;;;;;;59.97;31.30;;;;;;;;;;6244514;22;20390;-75
2020/12/09 10:51:46;;;;;;;52.47;29.83;;;;;;;;;;6245236;23;20742;-75
2020/12/09 10:54:24;;;;;;;55.03;31.43;;;;;;;;;;6208530;22;20441;-75
2020/12/09 10:57:10;;;;;;;51.73;28.20;;;;;;;;;;6244379;23;20496;-74
2020/12/09 10:59:46;;;;;;;51.23;30.23;;;;;;;;;;6245456;22;20552;-75
2020/12/09 11:02:15;;;;;;;52.50;30.40;;;;;;;;;;6244586;23;20827;-75
2020/12/09 11:07:49;;;;;;;53.03;31.57;;;;;;;;;;6230987;23;20406;-75
2020/12/09 11:10:22;;;;;;;51.07;30.13;;;;;;;;;;6244965;22;20443;-74
2020/12/09 11:12:56;;;;;;;50.67;30.50;;;;;;;;;;6245169;23;20406;-74
2020/12/09 11:15:30;;;;;;;57.27;30.80;;;;;;;;;;6247131;22;20421;-75
2020/12/09 11:17:58;;;;;;;49.10;27.27;;;;;;;;;;6247069;22;20412;-75
2020/12/09 11:24:04;;;;;;;49.83;28.50;;;;;;;;;;6155177;23;20392;-76
2020/12/09 11:26:34;;;;;;;53.70;28.63;;;;;;;;;;6153097;23;20534;-74
2020/12/09 11:29:08;;;;;;;50.63;28.87;;;;;;;;;;6243207;23;20680;-75
2020/12/09 11:31:38;;;;;;;44.70;27.40;;;;;;;;;;6248319;22;20423;-75
2020/12/09 11:34:06;;;;;;;48.07;25.53;;;;;;;;;;6247304;23;20416;-74
2020/12/09 11:36:50;;;;;;;56.50;33.20;;;;;;;;;;6247841;22;20424;-74
2020/12/09 11:39:22;;;;;;;55.77;31.10;;;;;;;;;;6247441;22;20949;-75
2020/12/09 11:41:57;;;;;;;51.40;30.80;;;;;;;;;;6247132;23;20375;-73
2020/12/09 11:44:24;;;;;;;55.03;29.87;;;;;;;;;;6246452;22;20417;-74
2020/12/09 11:46:52;;;;;;;46.30;27.60;;;;;;;;;;6247041;23;20475;-74
2020/12/09 11:49:23;;;;;;;55.83;28.10;;;;;;;;;;6247383;22;20410;-74
2020/12/09 11:51:51;;;;;;;49.10;29.83;;;;;;;;;;6245667;23;20391;-75
2020/12/09 11:54:19;;;;;;;48.00;30.07;;;;;;;;;;6246731;22;20806;-74
2020/12/09 12:08:38;;;;;;;53.03;31.27;;;;;;;;;;6155709;23;20456;-75
2020/12/09 12:11:05;;;;;;;52.40;28.20;;;;;;;;;;6240990;22;20429;-72
2020/12/09 12:13:51;;;;;;;57.20;31.53;;;;;;;;;;6247884;23;20785;-75
2020/12/09 12:16:24;;;;;;;49.67;28.07;;;;;;;;;;6246427;23;20402;-75
2020/12/09 12:18:57;;;;;;;49.87;28.30;;;;;;;;;;6245998;23;20707;-74
2020/12/09 12:21:32;;;;;;;52.63;28.00;;;;;;;;;;6245831;22;20445;-73
2020/12/09 12:26:57;;;;;;;51.90;30.57;;;;;;;;;;6244837;22;20413;-73
2020/12/09 12:32:26;;;;;;;53.03;28.07;;;;;;;;;;6233537;22;20476;-76
2020/12/09 12:35:06;;;;;;;53.73;27.70;;;;;;;;;;6244582;23;20389;-75
2020/12/09 12:37:33;;;;;;;51.30;28.97;;;;;;;;;;6243724;22;20410;-74
2020/12/09 12:40:03;;;;;;;54.83;30.63;;;;;;;;;;6243695;23;20514;-74
2020/12/09 12:42:33;;;;;;;57.27;29.90;;;;;;;;;;6245876;22;20425;-74
2020/12/09 12:45:02;;;;;;;53.17;30.17;;;;;;;;;;6245617;23;20386;-74
2020/12/09 12:47:31;;;;;;;48.53;29.70;;;;;;;;;;6246217;22;20414;-75
2020/12/09 12:50:05;;;;;;;60.40;32.50;;;;;;;;;;6245647;23;20393;-76
2020/12/09 12:52:32;;;;;;;56.23;30.03;;;;;;;;;;6246357;22;20425;-75
2020/12/09 12:55:02;;;;;;;51.47;28.37;;;;;;;;;;6246780;23;20400;-75
2020/12/09 12:57:30;;;;;;;55.53;29.87;;;;;;;;;;6242784;22;20414;-75
2020/12/09 12:59:57;;;;;;;48.23;27.63;;;;;;;;;;6243479;23;20434;-74
2020/12/09 13:02:25;;;;;;;60.30;33.80;;;;;;;;;;6246362;22;20394;-75
2020/12/09 13:05:05;;;;;;;51.60;29.60;;;;;;;;;;6246008;23;20460;-75
2020/12/09 13:07:34;;;;;;;47.43;25.57;;;;;;;;;;6245483;22;20431;-74
2020/12/09 13:10:01;;;;;;;47.40;26.23;;;;;;;;;;6244996;23;20415;-75
2020/12/09 13:12:36;;;;;;;49.50;27.70;;;;;;;;;;6245476;22;20412;-74
2020/12/09 13:15:04;;;;;;;49.37;25.97;;;;;;;;;;6245294;23;20390;-74
2020/12/09 13:17:32;;;;;;;59.10;28.80;;;;;;;;;;6245523;22;20425;-74
2020/12/09 13:20:08;;;;;;;51.00;27.80;;;;;;;;;;6245554;23;20557;-74
2020/12/09 13:22:37;;;;;;;50.00;29.60;;;;;;;;;;6246207;22;20428;-74
2020/12/09 13:25:05;;;;;;;54.60;29.10;;;;;;;;;;6246208;22;20417;-74
2020/12/09 13:27:36;;;;;;;53.20;28.50;;;;;;;;;;6246137;23;20394;-75
2020/12/09 13:30:05;;;;;;;48.67;27.40;;;;;;;;;;6247927;22;20410;-74
2020/12/09 13:32:33;;;;;;;49.73;26.63;;;;;;;;;;6245554;23;20869;-74
2020/12/09 13:35:00;;;;;;;51.13;28.73;;;;;;;;;;6245948;22;20413;-74
2020/12/09 13:37:29;;;;;;;48.97;27.37;;;;;;;;;;6246722;23;20402;-75
2020/12/09 13:40:36;;;;;;;44.20;26.40;;;;;;;;;;6244945;22;20897;-74
2020/12/09 13:46:08;;;;;;;48.30;26.03;;;;;;;;;;6247268;22;20401;-74
2020/12/09 13:51:48;;;;;;;50.50;26.17;;;;;;;;;;6243858;22;20667;-75
2020/12/09 13:54:16;;;;;;;48.60;26.97;;;;;;;;;;6244316;23;20390;-74
2020/12/09 13:56:44;;;;;;;50.60;27.33;;;;;;;;;;6243951;22;20448;-75
2020/12/09 13:59:11;;;;;;;53.63;29.90;;;;;;;;;;6244155;22;20441;-74
2020/12/09 14:01:38;;;;;;;48.93;26.40;;;;;;;;;;6244727;23;20390;-74
2020/12/09 14:04:07;;;;;;;43.93;25.57;;;;;;;;;;6245151;22;20475;-74
2020/12/09 14:06:35;;;;;;;53.07;27.00;;;;;;;;;;6245234;23;20409;-75
2020/12/09 14:09:05;;;;;;;50.90;27.97;;;;;;;;;;6249441;22;20409;-74
2020/12/09 14:11:34;;;;;;;48.37;26.20;;;;;;;;;;6245738;23;20414;-75
2020/12/09 14:14:02;;;;;;;52.00;28.03;;;;;;;;;;6247259;22;20420;-75
2020/12/09 14:19:34;;;;;;;48.77;27.67;;;;;;;;;;6227060;22;20470;-74
2020/12/09 14:22:10;;;;;;;50.57;26.13;;;;;;;;;;6246092;22;20867;-76
2020/12/09 14:24:38;;;;;;;62.17;28.40;;;;;;;;;;6243869;23;20869;-75
2020/12/09 14:27:09;;;;;;;52.17;29.30;;;;;;;;;;6246624;22;20413;-75
2020/12/09 14:35:29;;;;;;;52.17;25.77;;;;;;;;;;6228407;23;20816;-74
2020/12/09 14:37:58;;;;;;;61.27;30.73;;;;;;;;;;6245721;22;20444;-74
2020/12/09 14:40:30;;;;;;;48.70;26.03;;;;;;;;;;6245288;23;20503;-75
2020/12/09 14:43:18;;;;;;;57.73;27.87;;;;;;;;;;6246226;22;20416;-74
2020/12/09 14:45:46;;;;;;;53.87;28.70;;;;;;;;;;6246760;23;20401;-74
2020/12/09 14:48:15;;;;;;;50.80;27.77;;;;;;;;;;6246815;22;20422;-74
2020/12/09 14:50:43;;;;;;;54.87;27.27;;;;;;;;;;6247460;23;20386;-73
2020/12/09 14:53:11;;;;;;;49.13;27.67;;;;;;;;;;6247909;22;20409;-74
2020/12/09 14:55:41;;;;;;;64.87;35.20;;;;;;;;;;6246306;23;20390;-74
2020/12/09 14:58:09;;;;;;;56.10;31.03;;;;;;;;;;6245886;22;20429;-74
2020/12/09 15:00:39;;;;;;;57.83;30.87;;;;;;;;;;6246452;22;20450;-74
2020/12/09 15:03:08;;;;;;;59.17;29.10;;;;;;;;;;6245692;23;20666;-75
2020/12/09 15:05:39;;;;;;;59.33;28.50;;;;;;;;;;6247088;22;20427;-75
2020/12/09 15:08:44;;;;;;;;;;;;;;;;;;;;;
2020/12/09 15:11:30;;;;;;;61.40;32.00;;;;;;;;;;6235049;23;20456;-74
2020/12/09 15:14:05;;;;;;;60.33;29.20;;;;;;;;;;6248943;22;20394;-75
2020/12/09 15:16:32;;;;;;;60.10;29.60;;;;;;;;;;6248063;22;20405;-73
2020/12/09 15:19:07;;;;;;;62.43;29.60;;;;;;;;;;6246425;23;20429;-74
2020/12/09 15:21:35;;;;;;;68.50;32.20;;;;;;;;;;6246182;22;20505;-75
2020/12/09 15:24:05;;;;;;;70.03;31.57;;;;;;;;;;6246477;23;20455;-76
2020/12/09 15:26:47;;;;;;;57.77;29.20;;;;;;;;;;6248280;22;20455;-78
2020/12/09 15:29:27;;;;;;;63.77;32.33;;;;;;;;;;6248727;23;20494;-74
2020/12/09 15:32:05;;;;;;;72.53;32.87;;;;;;;;;;6247074;22;20691;-75
2020/12/09 15:34:43;;;;;;;67.30;32.77;;;;;;;;;;6247554;23;20402;-72
2020/12/09 15:37:11;;;;;;;59.33;32.00;;;;;;;;;;6247887;22;20482;-74
2020/12/09 15:39:44;;;;;;;69.27;32.30;;;;;;;;;;6246958;23;20465;-74